sensor_id;sensor_type;location;lat;lon;timestamp;P1;durP1;ratioP1;P2;durP2;ratioP2
63406;SDS011;49543;45.892;10.838;2022-08-19T06:02:19;2.45;;;1.70;;
63406;SDS011;49543;45.892;10.838;2022-08-19T06:04:44;2.50;;;1.83;;
63406;SDS011;49543;45.892;10.838;2022-08-19T06:07:10;3.15;;;2.35;;
63406;SDS011;49543;45.892;10.838;2022-08-19T06:09:35;3.67;;;2.17;;
63406;SDS011;49543;45.892;10.838;2022-08-19T06:12:02;2.55;;;2.20;;
63406;SDS011;49543;45.892;10.838;2022-08-19T06:14:30;4.18;;;2.30;;
63406;SDS011;49543;45.892;10.838;2022-08-19T06:16:58;4.05;;;2.13;;
63406;SDS011;49543;45.892;10.838;2022-08-19T09:33:05;4.97;;;2.30;;
63406;SDS011;49543;45.892;10.838;2022-08-19T09:35:31;3.80;;;2.22;;
63406;SDS011;49543;45.892;10.838;2022-08-19T09:37:57;3.65;;;2.40;;
63406;SDS011;49543;45.892;10.838;2022-08-19T09:40:23;6.80;;;2.47;;
63406;SDS011;49543;45.892;10.838;2022-08-19T09:42:50;5.18;;;2.83;;
63406;SDS011;49543;45.892;10.838;2022-08-19T09:45:17;6.13;;;2.85;;
63406;SDS011;49543;45.892;10.838;2022-08-19T09:47:45;4.50;;;2.55;;
63406;SDS011;49543;45.892;10.838;2022-08-19T09:50:11;4.65;;;2.63;;
63406;SDS011;49543;45.892;10.838;2022-08-19T09:52:37;5.05;;;2.30;;
63406;SDS011;49543;45.892;10.838;2022-08-19T09:55:06;7.03;;;2.88;;
63406;SDS011;49543;45.892;10.838;2022-08-19T09:57:33;4.13;;;2.65;;
63406;SDS011;49543;45.892;10.838;2022-08-19T09:59:59;3.72;;;2.20;;
63406;SDS011;49543;45.892;10.838;2022-08-19T10:02:25;4.05;;;2.50;;
63406;SDS011;49543;45.892;10.838;2022-08-19T10:04:50;3.90;;;2.30;;
63406;SDS011;49543;45.892;10.838;2022-08-19T10:07:35;6.28;;;3.03;;
63406;SDS011;49543;45.892;10.838;2022-08-19T10:10:02;3.78;;;2.28;;
63406;SDS011;49543;45.892;10.838;2022-08-19T10:12:28;3.00;;;2.60;;
63406;SDS011;49543;45.892;10.838;2022-08-19T10:14:54;2.30;;;2.10;;
63406;SDS011;49543;45.892;10.838;2022-08-19T10:17:20;5.80;;;2.80;;
63406;SDS011;49543;45.892;10.838;2022-08-19T10:19:46;4.45;;;2.70;;
63406;SDS011;49543;45.892;10.838;2022-08-19T10:22:12;4.80;;;3.20;;
63406;SDS011;49543;45.892;10.838;2022-08-19T10:24:38;6.43;;;3.30;;
63406;SDS011;49543;45.892;10.838;2022-08-19T10:27:04;4.28;;;2.90;;
63406;SDS011;49543;45.892;10.838;2022-08-19T10:29:31;3.53;;;2.40;;
63406;SDS011;49543;45.892;10.838;2022-08-19T10:31:57;4.07;;;2.63;;
63406;SDS011;49543;45.892;10.838;2022-08-19T10:34:25;4.63;;;2.72;;
63406;SDS011;49543;45.892;10.838;2022-08-19T10:36:54;6.60;;;2.45;;
63406;SDS011;49543;45.892;10.838;2022-08-19T10:39:21;4.50;;;2.35;;
63406;SDS011;49543;45.892;10.838;2022-08-19T10:41:46;4.28;;;2.50;;
63406;SDS011;49543;45.892;10.838;2022-08-19T10:44:12;3.90;;;2.20;;
63406;SDS011;49543;45.892;10.838;2022-08-19T10:46:39;2.92;;;2.20;;
63406;SDS011;49543;45.892;10.838;2022-08-19T10:49:07;3.65;;;2.17;;
63406;SDS011;49543;45.892;10.838;2022-08-19T10:51:34;3.83;;;2.20;;
63406;SDS011;49543;45.892;10.838;2022-08-19T10:54:19;3.90;;;2.33;;
63406;SDS011;49543;45.892;10.838;2022-08-19T10:56:45;2.83;;;2.10;;
63406;SDS011;49543;45.892;10.838;2022-08-19T10:59:18;3.28;;;2.05;;
63406;SDS011;49543;45.892;10.838;2022-08-19T11:01:48;3.15;;;2.22;;
63406;SDS011;49543;45.892;10.838;2022-08-19T11:04:15;5.45;;;2.20;;
63406;SDS011;49543;45.892;10.838;2022-08-19T11:06:43;4.25;;;3.28;;
63406;SDS011;49543;45.892;10.838;2022-08-19T11:09:13;7.45;;;3.90;;
63406;SDS011;49543;45.892;10.838;2022-08-19T11:11:40;6.00;;;3.90;;
63406;SDS011;49543;45.892;10.838;2022-08-19T11:14:10;7.15;;;3.88;;
63406;SDS011;49543;45.892;10.838;2022-08-19T11:16:37;5.70;;;3.13;;
63406;SDS011;49543;45.892;10.838;2022-08-19T11:19:04;4.20;;;3.17;;
63406;SDS011;49543;45.892;10.838;2022-08-19T11:21:33;8.50;;;4.43;;
63406;SDS011;49543;45.892;10.838;2022-08-19T11:24:02;5.60;;;3.47;;
63406;SDS011;49543;45.892;10.838;2022-08-19T11:26:30;5.75;;;3.20;;
63406;SDS011;49543;45.892;10.838;2022-08-19T11:28:57;6.13;;;3.25;;
63406;SDS011;49543;45.892;10.838;2022-08-19T11:31:25;3.83;;;3.03;;
63406;SDS011;49543;45.892;10.838;2022-08-19T11:33:52;6.88;;;3.28;;
63406;SDS011;49543;45.892;10.838;2022-08-19T11:36:19;5.75;;;2.70;;
63406;SDS011;49543;45.892;10.838;2022-08-19T11:38:46;7.40;;;3.88;;
63406;SDS011;49543;45.892;10.838;2022-08-19T11:41:13;5.47;;;3.30;;
63406;SDS011;49543;45.892;10.838;2022-08-19T11:43:40;8.32;;;3.90;;
63406;SDS011;49543;45.892;10.838;2022-08-19T17:05:19;4.07;;;1.70;;
63406;SDS011;49543;45.892;10.838;2022-08-19T17:07:44;10.68;;;2.50;;
63406;SDS011;49543;45.892;10.838;2022-08-19T17:10:10;2.38;;;1.50;;
63406;SDS011;49543;45.892;10.838;2022-08-19T17:12:35;2.58;;;1.60;;
63406;SDS011;49543;45.892;10.838;2022-08-19T17:15:02;5.18;;;1.80;;
63406;SDS011;49543;45.892;10.838;2022-08-19T17:17:29;4.65;;;1.95;;
63406;SDS011;49543;45.892;10.838;2022-08-19T17:19:58;3.78;;;2.00;;
63406;SDS011;49543;45.892;10.838;2022-08-19T17:22:24;3.35;;;1.38;;
63406;SDS011;49543;45.892;10.838;2022-08-19T17:24:50;2.65;;;1.42;;
63406;SDS011;49543;45.892;10.838;2022-08-19T17:27:15;2.72;;;1.60;;
63406;SDS011;49543;45.892;10.838;2022-08-19T17:29:41;4.55;;;1.48;;
63406;SDS011;49543;45.892;10.838;2022-08-19T17:32:06;3.05;;;1.70;;
63406;SDS011;49543;45.892;10.838;2022-08-19T17:34:31;4.95;;;2.35;;
63406;SDS011;49543;45.892;10.838;2022-08-19T17:36:57;4.47;;;1.77;;
63406;SDS011;49543;45.892;10.838;2022-08-19T17:39:23;5.10;;;1.70;;
63406;SDS011;49543;45.892;10.838;2022-08-19T17:41:49;2.83;;;1.55;;
63406;SDS011;49543;45.892;10.838;2022-08-19T17:44:15;2.88;;;1.50;;
63406;SDS011;49543;45.892;10.838;2022-08-19T17:46:41;6.22;;;1.75;;
63406;SDS011;49543;45.892;10.838;2022-08-19T17:49:06;3.08;;;1.30;;
63406;SDS011;49543;45.892;10.838;2022-08-19T17:53:57;4.43;;;1.30;;
63406;SDS011;49543;45.892;10.838;2022-08-19T17:56:23;2.55;;;1.38;;
63406;SDS011;49543;45.892;10.838;2022-08-19T17:58:49;3.28;;;1.13;;
63406;SDS011;49543;45.892;10.838;2022-08-19T18:01:16;2.88;;;1.23;;
63406;SDS011;49543;45.892;10.838;2022-08-19T18:03:41;1.48;;;1.27;;
63406;SDS011;49543;45.892;10.838;2022-08-19T18:06:07;4.72;;;1.30;;
63406;SDS011;49543;45.892;10.838;2022-08-19T18:08:34;3.30;;;1.40;;
63406;SDS011;49543;45.892;10.838;2022-08-19T18:13:28;4.95;;;2.10;;
63406;SDS011;49543;45.892;10.838;2022-08-19T18:15:54;3.38;;;1.83;;
63406;SDS011;49543;45.892;10.838;2022-08-19T18:18:21;4.60;;;1.63;;
63406;SDS011;49543;45.892;10.838;2022-08-19T18:20:47;3.47;;;1.48;;
63406;SDS011;49543;45.892;10.838;2022-08-19T18:23:12;1.80;;;1.42;;
63406;SDS011;49543;45.892;10.838;2022-08-19T18:25:38;2.60;;;1.55;;
63406;SDS011;49543;45.892;10.838;2022-08-19T18:28:03;1.83;;;1.27;;
63406;SDS011;49543;45.892;10.838;2022-08-19T18:30:29;6.57;;;2.20;;
63406;SDS011;49543;45.892;10.838;2022-08-19T18:32:58;5.53;;;1.40;;
63406;SDS011;49543;45.892;10.838;2022-08-19T18:35:26;1.98;;;1.20;;
63406;SDS011;49543;45.892;10.838;2022-08-19T18:37:57;2.00;;;1.70;;
63406;SDS011;49543;45.892;10.838;2022-08-19T18:40:25;1.95;;;1.38;;
63406;SDS011;49543;45.892;10.838;2022-08-19T18:43:11;1.77;;;1.30;;
63406;SDS011;49543;45.892;10.838;2022-08-19T18:45:41;2.70;;;1.30;;
63406;SDS011;49543;45.892;10.838;2022-08-19T18:48:26;7.47;;;1.63;;
63406;SDS011;49543;45.892;10.838;2022-08-19T18:51:11;2.53;;;1.27;;
63406;SDS011;49543;45.892;10.838;2022-08-19T18:53:37;2.97;;;1.55;;
63406;SDS011;49543;45.892;10.838;2022-08-19T18:56:05;5.10;;;2.38;;
63406;SDS011;49543;45.892;10.838;2022-08-19T18:58:32;3.88;;;1.50;;
63406;SDS011;49543;45.892;10.838;2022-08-19T19:01:02;4.95;;;1.60;;
63406;SDS011;49543;45.892;10.838;2022-08-19T19:03:35;1.20;;;1.10;;
63406;SDS011;49543;45.892;10.838;2022-08-19T19:06:03;2.33;;;1.80;;
63406;SDS011;49543;45.892;10.838;2022-08-19T19:08:30;2.15;;;1.40;;
63406;SDS011;49543;45.892;10.838;2022-08-19T19:10:58;4.35;;;2.60;;
63406;SDS011;49543;45.892;10.838;2022-08-19T19:13:29;7.38;;;4.10;;
63406;SDS011;49543;45.892;10.838;2022-08-19T19:15:55;2.58;;;1.77;;
63406;SDS011;49543;45.892;10.838;2022-08-19T19:18:21;5.22;;;1.92;;
63406;SDS011;49543;45.892;10.838;2022-08-19T19:20:46;3.60;;;1.50;;
63406;SDS011;49543;45.892;10.838;2022-08-19T19:23:12;2.38;;;1.67;;
63406;SDS011;49543;45.892;10.838;2022-08-19T19:25:37;2.78;;;1.67;;
63406;SDS011;49543;45.892;10.838;2022-08-19T19:28:03;2.20;;;1.60;;
63406;SDS011;49543;45.892;10.838;2022-08-19T19:30:29;3.95;;;1.50;;
63406;SDS011;49543;45.892;10.838;2022-08-19T19:32:55;2.28;;;1.55;;
63406;SDS011;49543;45.892;10.838;2022-08-19T19:35:21;3.25;;;1.30;;
63406;SDS011;49543;45.892;10.838;2022-08-19T19:37:47;4.93;;;2.60;;
63406;SDS011;49543;45.892;10.838;2022-08-19T19:40:17;5.13;;;2.20;;
63406;SDS011;49543;45.892;10.838;2022-08-19T19:42:46;3.47;;;1.67;;
63406;SDS011;49543;45.892;10.838;2022-08-19T19:45:13;3.38;;;2.00;;
63406;SDS011;49543;45.892;10.838;2022-08-19T19:47:39;3.50;;;2.30;;
63406;SDS011;49543;45.892;10.838;2022-08-19T19:50:08;6.65;;;2.72;;
63406;SDS011;49543;45.892;10.838;2022-08-19T19:52:37;3.67;;;2.63;;
63406;SDS011;49543;45.892;10.838;2022-08-19T19:55:03;5.60;;;2.80;;
63406;SDS011;49543;45.892;10.838;2022-08-19T19:57:29;2.28;;;1.70;;
63406;SDS011;49543;45.892;10.838;2022-08-19T19:59:55;5.93;;;1.90;;
63406;SDS011;49543;45.892;10.838;2022-08-19T20:02:20;3.90;;;1.92;;
63406;SDS011;49543;45.892;10.838;2022-08-19T20:04:47;3.85;;;1.50;;
63406;SDS011;49543;45.892;10.838;2022-08-19T20:07:12;3.30;;;1.60;;
63406;SDS011;49543;45.892;10.838;2022-08-19T20:09:38;2.83;;;1.30;;
63406;SDS011;49543;45.892;10.838;2022-08-19T20:12:03;2.72;;;1.80;;
63406;SDS011;49543;45.892;10.838;2022-08-19T20:14:31;2.55;;;1.38;;
63406;SDS011;49543;45.892;10.838;2022-08-19T20:17:00;3.95;;;2.38;;
63406;SDS011;49543;45.892;10.838;2022-08-19T20:19:29;4.20;;;1.63;;
63406;SDS011;49543;45.892;10.838;2022-08-19T20:22:00;3.25;;;1.70;;
63406;SDS011;49543;45.892;10.838;2022-08-19T20:24:27;2.45;;;1.80;;
63406;SDS011;49543;45.892;10.838;2022-08-19T20:26:59;2.95;;;1.52;;
63406;SDS011;49543;45.892;10.838;2022-08-19T20:29:27;2.88;;;1.83;;
63406;SDS011;49543;45.892;10.838;2022-08-19T20:31:53;2.13;;;1.58;;
63406;SDS011;49543;45.892;10.838;2022-08-19T20:34:19;3.17;;;1.60;;
63406;SDS011;49543;45.892;10.838;2022-08-19T20:36:44;2.92;;;1.42;;
63406;SDS011;49543;45.892;10.838;2022-08-19T20:39:11;2.13;;;1.50;;
63406;SDS011;49543;45.892;10.838;2022-08-19T20:41:38;1.73;;;1.63;;
63406;SDS011;49543;45.892;10.838;2022-08-19T20:44:04;2.88;;;1.40;;
63406;SDS011;49543;45.892;10.838;2022-08-19T20:46:30;3.03;;;2.17;;
63406;SDS011;49543;45.892;10.838;2022-08-19T20:48:56;3.60;;;2.00;;
63406;SDS011;49543;45.892;10.838;2022-08-19T20:51:23;5.03;;;1.80;;
63406;SDS011;49543;45.892;10.838;2022-08-19T20:53:50;2.42;;;1.73;;
63406;SDS011;49543;45.892;10.838;2022-08-19T20:56:15;1.85;;;1.60;;
63406;SDS011;49543;45.892;10.838;2022-08-19T20:58:41;5.30;;;1.95;;
63406;SDS011;49543;45.892;10.838;2022-08-19T21:01:06;4.22;;;1.98;;
63406;SDS011;49543;45.892;10.838;2022-08-19T21:03:35;2.95;;;1.92;;
63406;SDS011;49543;45.892;10.838;2022-08-19T21:06:05;4.50;;;1.70;;
63406;SDS011;49543;45.892;10.838;2022-08-19T21:08:32;1.75;;;1.52;;
63406;SDS011;49543;45.892;10.838;2022-08-19T21:10:58;2.33;;;1.35;;
63406;SDS011;49543;45.892;10.838;2022-08-19T21:13:24;3.78;;;1.70;;
63406;SDS011;49543;45.892;10.838;2022-08-19T21:15:50;1.98;;;1.50;;
63406;SDS011;49543;45.892;10.838;2022-08-19T21:18:17;5.82;;;2.90;;
63406;SDS011;49543;45.892;10.838;2022-08-19T21:20:44;3.05;;;2.70;;
63406;SDS011;49543;45.892;10.838;2022-08-19T21:23:13;5.05;;;2.38;;
63406;SDS011;49543;45.892;10.838;2022-08-19T21:25:41;3.50;;;2.22;;
63406;SDS011;49543;45.892;10.838;2022-08-19T21:28:08;2.55;;;1.65;;
63406;SDS011;49543;45.892;10.838;2022-08-19T21:30:33;4.55;;;1.40;;
63406;SDS011;49543;45.892;10.838;2022-08-19T21:33:00;1.50;;;1.40;;
63406;SDS011;49543;45.892;10.838;2022-08-19T21:35:28;2.78;;;1.58;;
63406;SDS011;49543;45.892;10.838;2022-08-19T21:37:54;3.45;;;1.42;;
63406;SDS011;49543;45.892;10.838;2022-08-19T21:40:21;2.97;;;1.58;;
63406;SDS011;49543;45.892;10.838;2022-08-19T21:42:49;2.75;;;2.05;;
63406;SDS011;49543;45.892;10.838;2022-08-19T21:45:14;3.50;;;1.48;;
63406;SDS011;49543;45.892;10.838;2022-08-19T21:47:41;2.65;;;1.67;;
